createdAt,value
2018-09-15T00:02:06.534Z,98284.76
2018-09-15T00:04:35.771Z,98282.61
2018-09-15T00:07:04.985Z,98290.39
2018-09-15T00:09:34.192Z,98286.09
2018-09-15T00:12:03.485Z,98286.61
2018-09-15T00:14:32.734Z,98284.98
2018-09-15T00:17:01.977Z,98291.47
2018-09-15T00:19:31.365Z,98283.41
2018-09-15T00:22:00.599Z,98286.70
2018-09-15T00:24:29.832Z,98290.21
2018-09-15T00:26:59.186Z,98288.88
2018-09-15T00:29:28.407Z,98297.25
2018-09-15T00:31:57.649Z,98299.92
2018-09-15T00:34:26.886Z,98296.16
2018-09-15T00:36:56.155Z,98296.19
2018-09-15T00:39:25.441Z,98298.36
2018-09-15T00:41:54.759Z,98307.20
2018-09-15T00:44:23.967Z,98302.63
2018-09-15T00:46:53.246Z,98304.27
2018-09-15T00:49:22.570Z,98295.91
2018-09-15T00:51:51.805Z,98305.08
2018-09-15T00:54:21.037Z,98308.57
2018-09-15T00:56:50.281Z,98307.99
2018-09-15T00:59:19.627Z,98310.97
2018-09-15T01:01:48.882Z,98320.38
2018-09-15T01:04:18.139Z,98322.53
2018-09-15T01:06:47.365Z,98321.20
2018-09-15T01:09:16.610Z,98309.64
2018-09-15T01:11:45.825Z,98309.91
2018-09-15T01:14:15.132Z,98301.03
2018-09-15T01:16:44.289Z,98317.96
2018-09-15T01:19:13.548Z,98305.34
2018-09-15T01:21:42.786Z,98297.27
2018-09-15T01:24:12.056Z,98303.45
2018-09-15T01:26:41.281Z,98305.88
2018-09-15T01:29:10.489Z,98299.69
2018-09-15T01:31:39.710Z,98303.45
2018-09-15T01:34:08.950Z,98303.45
2018-09-15T01:36:38.153Z,98302.91
2018-09-15T01:39:09.569Z,98308.27
2018-09-15T01:41:39.300Z,98313.64
2018-09-15T01:44:08.619Z,98319.82
2018-09-15T01:46:37.841Z,98320.61
2018-09-15T01:49:07.115Z,98324.11
2018-09-15T01:51:36.362Z,98323.30
2018-09-15T01:54:05.637Z,98325.98
2018-09-15T01:56:34.862Z,98328.64
2018-09-15T01:59:04.114Z,98329.42
2018-09-15T02:01:33.404Z,98328.36
2018-09-15T02:04:02.653Z,98331.03
2018-09-15T02:06:31.890Z,98336.14
2018-09-15T02:09:01.134Z,98333.70
2018-09-15T02:11:30.402Z,98337.48
2018-09-15T02:13:59.697Z,98336.67
2018-09-15T02:16:28.947Z,98330.73
2018-09-15T02:18:58.202Z,98329.63
2018-09-15T02:21:27.546Z,98325.55
2018-09-15T02:23:56.833Z,98331.41
2018-09-15T02:26:26.114Z,98333.03
2018-09-15T02:28:55.490Z,98333.54
2018-09-15T02:31:24.762Z,98332.45
2018-09-15T02:33:54.143Z,98327.84
2018-09-15T02:36:23.404Z,98331.30
2018-09-15T02:38:52.681Z,98336.09
2018-09-15T02:41:21.978Z,98333.13
2018-09-15T02:43:51.258Z,98334.95
2018-09-15T02:46:20.526Z,98336.30
2018-09-15T02:48:49.816Z,98339.95
2018-09-15T02:51:19.110Z,98338.85
2018-09-15T02:53:48.401Z,98343.97
2018-09-15T02:56:17.738Z,98349.34
2018-09-15T02:58:47.002Z,98354.20
2018-09-15T03:01:16.113Z,98347.55
2018-09-15T03:03:45.369Z,98347.02
2018-09-15T03:06:14.771Z,98353.44
2018-09-15T03:08:44.091Z,98349.66
2018-09-15T03:11:13.474Z,98356.89
2018-09-15T03:13:42.775Z,98362.85
2018-09-15T03:16:12.081Z,98368.50
2018-09-15T03:18:41.396Z,98368.78
2018-09-15T03:21:10.702Z,98373.38
2018-09-15T03:23:39.988Z,98370.73
2018-09-15T03:26:09.306Z,98371.83
2018-09-15T03:28:38.565Z,98377.96
2018-09-15T03:31:07.868Z,98375.56
2018-09-15T03:33:37.174Z,98379.05
2018-09-15T03:36:06.465Z,98373.98
2018-09-15T03:38:35.814Z,98373.94
2018-09-15T03:41:05.131Z,98372.08
2018-09-15T03:43:34.446Z,98376.05
2018-09-15T03:46:03.793Z,98377.64
2018-09-15T03:48:33.142Z,98380.28
2018-09-15T03:51:02.465Z,98381.00
2018-09-15T03:53:31.767Z,98382.58
2018-09-15T03:56:01.089Z,98385.50
2018-09-15T03:58:30.480Z,98382.25
2018-09-15T04:00:59.782Z,98388.41
2018-09-15T04:03:29.117Z,98393.16
2018-09-15T04:05:58.507Z,98395.20
2018-09-15T04:08:27.822Z,98405.57
2018-09-15T04:10:57.089Z,98403.61
2018-09-15T04:13:26.383Z,98408.38
2018-09-15T04:15:55.699Z,98414.36
2018-09-15T04:18:25.022Z,98416.72
2018-09-15T04:20:54.265Z,98418.63
2018-09-15T04:23:23.583Z,98425.41
2018-09-15T04:25:52.878Z,98420.57
2018-09-15T04:28:22.310Z,98429.54
2018-09-15T04:30:51.555Z,98434.91
2018-09-15T04:33:20.836Z,98436.24
2018-09-15T04:35:50.062Z,98437.59
2018-09-15T04:38:19.328Z,98441.03
2018-09-15T04:40:48.562Z,98439.44
2018-09-15T04:43:17.892Z,98446.37
2018-09-15T04:45:48.439Z,98438.10
2018-09-15T04:48:17.721Z,98449.39
2018-09-15T04:50:46.959Z,98448.64
2018-09-15T04:53:16.219Z,98455.86
2018-09-15T04:55:45.434Z,98458.54
2018-09-15T04:58:14.714Z,98458.73
2018-09-15T05:00:44.059Z,98464.84
2018-09-15T05:03:13.694Z,98470.43
2018-09-15T05:05:42.926Z,98470.85
2018-09-15T05:08:12.282Z,98468.91
2018-09-15T05:10:41.609Z,98470.70
2018-09-15T05:13:11.051Z,98473.91
2018-09-15T05:15:40.304Z,98474.13
2018-09-15T05:18:09.534Z,98482.09
2018-09-15T05:20:38.831Z,98485.30
2018-09-15T05:23:08.389Z,98484.19
2018-09-15T05:25:37.779Z,98487.76
2018-09-15T05:28:07.010Z,98490.13
2018-09-15T05:30:36.287Z,98491.01
2018-09-15T05:33:05.558Z,98485.14
2018-09-15T05:35:34.910Z,98483.87
2018-09-15T05:38:04.211Z,98486.02
2018-09-15T05:40:33.585Z,98484.24
2018-09-15T05:43:03.384Z,98487.00
2018-09-15T05:45:32.683Z,98484.16
2018-09-15T05:48:01.902Z,98494.13
2018-09-15T05:50:33.750Z,98495.19
2018-09-15T05:53:03.024Z,98493.66
2018-09-15T05:55:32.373Z,98496.58
2018-09-15T05:58:01.620Z,98495.19
2018-09-15T06:00:30.993Z,98495.95
2018-09-15T06:03:00.193Z,98496.80
2018-09-15T06:05:29.446Z,98503.91
2018-09-15T06:07:58.747Z,98504.64
2018-09-15T06:10:28.074Z,98505.94
2018-09-15T06:12:57.347Z,98506.41
2018-09-15T06:15:26.772Z,98508.53
2018-09-15T06:17:56.085Z,98510.64
2018-09-15T06:20:25.520Z,98510.53
2018-09-15T06:22:54.816Z,98510.15
2018-09-15T06:25:24.122Z,98514.05
2018-09-15T06:27:53.411Z,98511.45
2018-09-15T06:30:22.654Z,98515.82
2018-09-15T06:32:51.975Z,98524.16
2018-09-15T06:35:21.266Z,98527.00
2018-09-15T06:37:50.588Z,98534.66
2018-09-15T06:40:19.778Z,98537.73
2018-09-15T06:42:49.911Z,98533.09
2018-09-15T06:45:19.344Z,98540.23
2018-09-15T06:47:48.594Z,98541.11
2018-09-15T06:50:17.876Z,98544.03
2018-09-15T06:52:47.117Z,98552.45
2018-09-15T06:55:16.247Z,98550.33
2018-09-15T06:57:45.668Z,98563.80
2018-09-15T07:00:15.009Z,98559.52
2018-09-15T07:02:44.278Z,98566.19
2018-09-15T07:05:13.574Z,98566.23
2018-09-15T07:07:42.896Z,98573.58
2018-09-15T07:10:12.163Z,98576.58
2018-09-15T07:12:41.419Z,98579.60
2018-09-15T07:15:10.657Z,98581.53
2018-09-15T07:17:39.966Z,98585.05
2018-09-15T07:20:09.264Z,98583.98
2018-09-15T07:22:38.542Z,98590.42
2018-09-15T07:25:07.868Z,98591.74
2018-09-15T07:27:37.129Z,98585.67
2018-09-15T07:30:06.553Z,98587.89
2018-09-15T07:32:35.852Z,98592.46
2018-09-15T07:35:05.370Z,98587.37
2018-09-15T07:37:34.698Z,98590.87
2018-09-15T07:40:03.958Z,98591.66
2018-09-15T07:42:33.393Z,98599.76
2018-09-15T07:45:03.018Z,98600.45
2018-09-15T07:47:32.404Z,98601.90
2018-09-15T07:50:02.450Z,98597.34
2018-09-15T07:52:31.784Z,98597.34
2018-09-15T07:55:00.992Z,98595.42
2018-09-15T07:57:30.395Z,98602.72
2018-09-15T07:59:59.573Z,98606.22
2018-09-15T08:02:28.904Z,98603.26
2018-09-15T08:04:58.115Z,98605.38
2018-09-15T08:07:27.490Z,98596.77
2018-09-15T08:09:56.851Z,98598.08
2018-09-15T08:12:26.293Z,98596.75
2018-09-15T08:14:59.484Z,98600.97
2018-09-15T08:17:28.737Z,98591.41
2018-09-15T08:19:57.994Z,98596.67
2018-09-15T08:22:27.372Z,98597.72
2018-09-15T08:24:56.699Z,98603.33
2018-09-15T08:27:26.040Z,98604.55
2018-09-15T08:29:55.527Z,98607.75
2018-09-15T08:32:24.847Z,98610.72
2018-09-15T08:34:54.168Z,98615.42
2018-09-15T08:37:23.462Z,98606.97
2018-09-15T08:39:52.740Z,98609.75
2018-09-15T08:42:24.330Z,98612.66
2018-09-15T08:44:53.684Z,98607.67
2018-09-15T08:47:23.062Z,98611.12
2018-09-15T08:49:52.511Z,98612.70
2018-09-15T08:52:22.112Z,98608.56
2018-09-15T08:54:51.352Z,98619.30
2018-09-15T08:57:21.114Z,98617.27
2018-09-15T08:59:50.418Z,98618.52
2018-09-15T09:02:19.920Z,98623.59
2018-09-15T09:04:49.293Z,98623.56
2018-09-15T09:07:18.716Z,98623.57
2018-09-15T09:09:48.069Z,98631.35
2018-09-15T09:12:17.453Z,98627.13
2018-09-15T09:14:47.470Z,98624.13
2018-09-15T09:17:16.747Z,98624.58
2018-09-15T09:19:46.935Z,98660.89
2018-09-15T09:22:16.194Z,98628.53
2018-09-15T09:24:46.083Z,98638.58
2018-09-15T09:27:15.331Z,98632.80
2018-09-15T09:29:44.706Z,98626.22
2018-09-15T09:32:14.114Z,98630.26
2018-09-15T09:34:43.473Z,98625.31
2018-09-15T09:37:12.809Z,98626.94
2018-09-15T09:39:42.166Z,98628.44
2018-09-15T09:42:11.456Z,98624.07
2018-09-15T09:44:41.307Z,98630.25
2018-09-15T09:47:10.610Z,98623.16
2018-09-15T09:49:39.960Z,98624.41
2018-09-15T09:52:09.210Z,98623.27
2018-09-15T09:54:38.530Z,98616.89
2018-09-15T09:57:07.895Z,98622.30
2018-09-15T09:59:37.154Z,98620.38
2018-09-15T10:02:11.811Z,98617.64
2018-09-15T10:04:41.146Z,98617.38
2018-09-15T10:07:10.764Z,98614.19
2018-09-15T10:09:39.970Z,98606.92
2018-09-15T10:12:09.292Z,98610.14
2018-09-15T10:14:38.638Z,98607.55
2018-09-15T10:17:08.253Z,98610.31
2018-09-15T10:19:37.547Z,98613.66
2018-09-15T10:22:06.859Z,98610.78
2018-09-15T10:24:36.221Z,98610.73
2018-09-15T10:27:05.571Z,98606.53
2018-09-15T10:29:34.846Z,98609.20
2018-09-15T10:32:04.245Z,98607.41
2018-09-15T10:34:33.438Z,98605.34
2018-09-15T10:37:02.709Z,98606.98
2018-09-15T10:39:32.041Z,98603.63
2018-09-15T10:42:01.306Z,98599.20
2018-09-15T10:44:31.866Z,98605.95
2018-09-15T10:47:01.994Z,98599.39
2018-09-15T10:49:31.277Z,98600.11
2018-09-15T10:52:00.650Z,98605.27
2018-09-15T10:54:29.891Z,98604.88
2018-09-15T10:56:59.180Z,98609.64
2018-09-15T10:59:28.438Z,98605.41
2018-09-15T11:01:57.747Z,98603.11
2018-09-15T11:04:27.019Z,98608.23
2018-09-15T11:06:56.296Z,98608.38
2018-09-15T11:09:25.567Z,98606.55
2018-09-15T11:11:55.213Z,98603.79
2018-09-15T11:14:25.411Z,98604.27
2018-09-15T11:16:55.297Z,98615.60
2018-09-15T11:19:25.670Z,98617.45
2018-09-15T11:21:55.331Z,98622.94
2018-09-15T11:24:25.076Z,98622.33
2018-09-15T11:26:55.469Z,98613.81
2018-09-15T11:29:26.031Z,98611.27
2018-09-15T11:31:56.525Z,98603.50
2018-09-15T11:34:26.772Z,98605.13
2018-09-15T11:36:56.089Z,98608.56
2018-09-15T11:39:25.474Z,98605.45
2018-09-15T11:41:54.810Z,98611.73
2018-09-15T11:44:24.122Z,98608.44
2018-09-15T11:46:53.777Z,98611.44
2018-09-15T11:49:22.981Z,98599.64
2018-09-15T11:51:52.226Z,98599.33
2018-09-15T11:54:21.479Z,98603.23
2018-09-15T11:56:50.796Z,98602.14
2018-09-15T11:59:20.063Z,98604.40
2018-09-15T12:01:49.302Z,98595.92
2018-09-15T12:04:18.553Z,98603.45
2018-09-15T12:06:47.791Z,98601.63
2018-09-15T12:09:17.092Z,98596.27
2018-09-15T12:11:46.341Z,98592.23
2018-09-15T12:14:15.629Z,98590.67
2018-09-15T12:16:44.844Z,98592.03
2018-09-15T12:19:14.061Z,98588.22
2018-09-15T12:21:43.361Z,98589.08
2018-09-15T12:24:12.575Z,98589.48
2018-09-15T12:26:42.024Z,98591.19
2018-09-15T12:29:11.284Z,98591.02
2018-09-15T12:31:40.690Z,98586.50
2018-09-15T12:34:10.023Z,98580.34
2018-09-15T12:36:39.399Z,98587.77
2018-09-15T12:39:09.543Z,98586.16
2018-09-15T12:41:38.926Z,98584.53
2018-09-15T12:44:08.225Z,98585.86
2018-09-15T12:46:37.559Z,98584.20
2018-09-15T12:49:06.984Z,98582.22
2018-09-15T12:51:36.328Z,98569.16
2018-09-15T12:54:05.931Z,98570.14
2018-09-15T12:56:35.202Z,98569.52
2018-09-15T12:59:04.545Z,98564.88
2018-09-15T13:01:33.811Z,98565.89
2018-09-15T13:04:03.223Z,98571.55
2018-09-15T13:06:32.575Z,98563.42
2018-09-15T13:09:01.973Z,98557.84
2018-09-15T13:11:31.277Z,98565.14
2018-09-15T13:14:00.556Z,98559.00
2018-09-15T13:16:29.830Z,98555.89
2018-09-15T13:18:59.115Z,98552.48
2018-09-15T13:21:28.315Z,98555.21
2018-09-15T13:23:57.746Z,98555.46
2018-09-15T13:26:27.147Z,98565.91
2018-09-15T13:28:57.139Z,98555.19
2018-09-15T13:31:26.489Z,98551.39
2018-09-15T13:33:55.868Z,98551.26
2018-09-15T13:36:25.233Z,98553.22
2018-09-15T13:38:54.850Z,98547.09
2018-09-15T13:41:24.162Z,98541.92
2018-09-15T13:43:53.581Z,98545.28
2018-09-15T13:46:22.891Z,98538.95
2018-09-15T13:48:52.565Z,98537.84
2018-09-15T13:51:21.932Z,98540.05
2018-09-15T13:53:51.270Z,98541.47
2018-09-15T13:56:20.606Z,98543.28
2018-09-15T13:58:49.933Z,98540.69
2018-09-15T14:01:19.186Z,98540.22
2018-09-15T14:03:48.539Z,98537.92
2018-09-15T14:06:17.819Z,98536.72
2018-09-15T14:08:47.078Z,98542.08
2018-09-15T14:11:16.358Z,98535.97
2018-09-15T14:13:45.675Z,98535.13
2018-09-15T14:16:15.160Z,98534.08
2018-09-15T14:18:44.408Z,98531.50
2018-09-15T14:23:42.059Z,98531.34
2018-09-15T14:26:11.375Z,98542.33
2018-09-15T14:28:40.902Z,98528.09
2018-09-15T14:31:10.375Z,98528.69
2018-09-15T14:33:39.615Z,98524.91
2018-09-15T14:36:08.915Z,98525.62
2018-09-15T14:38:38.145Z,98521.97
2018-09-15T14:41:07.571Z,98522.13
2018-09-15T14:43:36.739Z,98519.39
2018-09-15T14:46:06.043Z,98520.69
2018-09-15T14:48:35.298Z,98521.28
2018-09-15T14:51:04.670Z,98515.63
2018-09-15T14:53:33.910Z,98511.47
2018-09-15T14:56:03.302Z,98524.78
2018-09-15T14:58:32.586Z,98526.59
2018-09-15T15:01:01.887Z,98523.92
2018-09-15T15:03:31.102Z,98522.49
2018-09-15T15:06:00.345Z,98517.09
2018-09-15T15:08:29.557Z,98518.73
2018-09-15T15:10:58.802Z,98510.66
2018-09-15T15:13:28.111Z,98511.98
2018-09-15T15:15:57.385Z,98511.65
2018-09-15T15:18:26.677Z,98513.80
2018-09-15T15:20:55.945Z,98514.41
2018-09-15T15:23:26.243Z,98513.05
2018-09-15T15:25:55.569Z,98513.80
2018-09-15T15:28:24.934Z,98516.05
2018-09-15T15:30:54.342Z,98519.28
2018-09-15T15:33:23.658Z,98518.41
2018-09-15T15:35:52.979Z,98512.44
2018-09-15T15:38:22.482Z,98513.55
2018-09-15T15:40:51.854Z,98513.63
2018-09-15T15:43:21.183Z,98513.16
2018-09-15T15:45:50.468Z,98518.62
2018-09-15T15:48:19.723Z,98527.66
2018-09-15T15:50:49.079Z,98519.57
2018-09-15T15:53:18.310Z,98522.33
2018-09-15T15:55:47.621Z,98526.08
2018-09-15T15:58:16.933Z,98526.77
2018-09-15T16:00:46.063Z,98524.32
2018-09-15T16:03:15.553Z,98522.57
2018-09-15T16:05:44.876Z,98527.59
2018-09-15T16:08:14.134Z,98527.77
2018-09-15T16:10:46.293Z,98530.72
2018-09-15T16:13:15.603Z,98522.78
2018-09-15T16:15:44.854Z,98528.62
2018-09-15T16:18:14.129Z,98528.55
2018-09-15T16:20:43.397Z,98523.53
2018-09-15T16:23:12.630Z,98533.28
2018-09-15T16:25:41.899Z,98532.86
2018-09-15T16:28:11.169Z,98531.98
2018-09-15T16:30:40.402Z,98537.86
2018-09-15T16:33:09.646Z,98538.19
2018-09-15T16:35:38.926Z,98540.39
2018-09-15T16:38:08.223Z,98541.20
2018-09-15T16:40:37.474Z,98545.89
2018-09-15T16:43:06.989Z,98547.60
2018-09-15T16:45:36.313Z,98552.50
2018-09-15T16:48:05.735Z,98549.84
2018-09-15T16:50:35.016Z,98547.50
2018-09-15T16:53:04.531Z,98548.97
2018-09-15T16:55:33.756Z,98554.44
2018-09-15T16:58:02.958Z,98548.31
2018-09-15T17:00:32.584Z,98544.64
2018-09-15T17:03:01.910Z,98544.94
2018-09-15T17:05:31.393Z,98548.55
2018-09-15T17:08:00.716Z,98554.14
2018-09-15T17:10:29.919Z,98549.08
2018-09-15T17:12:59.190Z,98551.56
2018-09-15T17:15:28.439Z,98550.33
2018-09-15T17:17:57.762Z,98556.64
2018-09-15T17:20:27.034Z,98561.48
2018-09-15T17:22:56.279Z,98570.14
2018-09-15T17:25:25.544Z,98567.48
2018-09-15T17:27:54.818Z,98570.77
2018-09-15T17:30:24.150Z,98576.78
2018-09-15T17:32:53.438Z,98574.38
2018-09-15T17:35:22.724Z,98579.52
2018-09-15T17:37:51.972Z,98582.25
2018-09-15T17:40:21.218Z,98583.62
2018-09-15T17:42:50.450Z,98584.95
2018-09-15T17:45:19.766Z,98583.34
2018-09-15T17:47:48.830Z,98589.25
2018-09-15T17:50:18.122Z,98588.45
2018-09-15T17:52:47.382Z,98596.51
2018-09-15T17:55:16.643Z,98594.38
2018-09-15T17:57:45.977Z,98600.83
2018-09-15T18:00:15.249Z,98607.83
2018-09-15T18:02:44.459Z,98608.08
2018-09-15T18:05:13.758Z,98613.16
2018-09-15T18:07:43.005Z,98613.45
2018-09-15T18:10:12.400Z,98616.93
2018-09-15T18:12:41.718Z,98616.34
2018-09-15T18:15:11.042Z,98619.02
2018-09-15T18:17:40.284Z,98621.69
2018-09-15T18:20:09.600Z,98622.95
2018-09-15T18:22:38.930Z,98625.61
2018-09-15T18:25:08.239Z,98627.98
2018-09-15T18:27:37.568Z,98625.98
2018-09-15T18:30:07.082Z,98624.59
2018-09-15T18:32:36.331Z,98635.50
2018-09-15T18:35:05.652Z,98636.99
2018-09-15T18:37:34.842Z,98636.07
2018-09-15T18:40:04.230Z,98637.89
2018-09-15T18:42:33.555Z,98649.00
2018-09-15T18:45:02.914Z,98645.37
2018-09-15T18:47:32.298Z,98646.30
2018-09-15T18:50:01.675Z,98646.29
2018-09-15T18:52:31.881Z,98649.15
2018-09-15T18:55:01.198Z,98653.46
2018-09-15T18:57:30.518Z,98653.59
2018-09-15T18:59:59.843Z,98650.86
2018-09-15T19:02:29.228Z,98649.16
2018-09-15T19:04:58.548Z,98648.33
2018-09-15T19:07:27.847Z,98644.98
2018-09-15T19:09:57.583Z,98642.53
2018-09-15T19:12:27.035Z,98645.71
2018-09-15T19:14:56.345Z,98650.08
2018-09-15T19:17:25.801Z,98648.01
2018-09-15T19:19:55.351Z,98649.95
2018-09-15T19:22:24.710Z,98656.04
2018-09-15T19:24:54.265Z,98657.88
2018-09-15T19:27:23.675Z,98669.33
2018-09-15T19:29:53.034Z,98663.40
2018-09-15T19:32:22.302Z,98661.41
2018-09-15T19:34:51.524Z,98664.55
2018-09-15T19:37:20.890Z,98667.94
2018-09-15T19:39:50.259Z,98664.00
2018-09-15T19:42:19.608Z,98669.56
2018-09-15T19:44:48.919Z,98661.87
2018-09-15T19:47:18.305Z,98662.70
2018-09-15T19:49:47.592Z,98661.44
2018-09-15T19:52:16.958Z,98674.09
2018-09-15T19:54:46.320Z,98659.08
2018-09-15T19:57:15.670Z,98661.23
2018-09-15T19:59:45.039Z,98660.63
2018-09-15T20:02:14.372Z,98657.42
2018-09-15T20:04:43.804Z,98662.59
2018-09-15T20:07:13.162Z,98663.23
2018-09-15T20:09:42.486Z,98653.32
2018-09-15T20:12:11.849Z,98655.58
2018-09-15T20:14:42.172Z,98661.52
2018-09-15T20:17:09.931Z,98662.25
2018-09-15T20:19:37.681Z,98669.58
2018-09-15T20:22:08.273Z,98673.36
2018-09-15T20:24:37.604Z,98676.42
2018-09-15T20:27:06.970Z,98670.98
2018-09-15T20:29:37.295Z,98676.20
2018-09-15T20:32:11.015Z,98673.55
2018-09-15T20:34:41.355Z,98669.21
2018-09-15T20:37:14.114Z,98670.91
2018-09-15T20:39:45.727Z,98671.20
2018-09-15T20:42:27.339Z,98670.69
2018-09-15T20:44:57.755Z,98669.87
2018-09-15T20:47:27.114Z,98669.44
2018-09-15T20:49:56.506Z,98665.63
2018-09-15T20:52:25.854Z,98665.84
2018-09-15T20:54:57.396Z,98661.09
2018-09-15T20:57:26.986Z,98655.64
2018-09-15T20:59:56.242Z,98655.84
2018-09-15T21:02:25.570Z,98658.89
2018-09-15T21:04:57.803Z,98664.52
2018-09-15T21:07:27.298Z,98663.52
2018-09-15T21:09:56.680Z,98662.27
2018-09-15T21:12:26.038Z,98670.13
2018-09-15T21:14:56.363Z,98671.16
2018-09-15T21:17:25.742Z,98673.33
2018-09-15T21:19:55.034Z,98675.48
2018-09-15T21:22:24.402Z,98670.80
2018-09-15T21:24:53.701Z,98677.21
2018-09-15T21:27:23.102Z,98675.72
2018-09-15T21:29:52.536Z,98674.86
2018-09-15T21:32:21.926Z,98674.91
2018-09-15T21:34:51.238Z,98675.13
2018-09-15T21:37:20.860Z,98673.61
2018-09-15T21:39:50.141Z,98674.23
2018-09-15T21:42:19.446Z,98680.78
2018-09-15T21:44:48.795Z,98678.92
2018-09-15T21:47:18.014Z,98681.13
2018-09-15T21:49:47.324Z,98676.31
2018-09-15T21:52:16.615Z,98678.30
2018-09-15T21:54:45.933Z,98699.74
2018-09-15T21:57:15.232Z,98682.87
2018-09-15T21:59:44.566Z,98680.20
2018-09-15T22:02:13.883Z,98675.64
2018-09-15T22:04:43.161Z,98687.00
2018-09-15T22:07:12.518Z,98688.56
2018-09-15T22:09:41.829Z,98688.63
2018-09-15T22:12:11.089Z,98690.23
2018-09-15T22:14:40.421Z,98689.59
2018-09-15T22:17:09.645Z,98694.72
2018-09-15T22:19:38.889Z,98694.81
2018-09-15T22:22:08.195Z,98687.27
2018-09-15T22:24:37.439Z,98696.56
2018-09-15T22:27:06.690Z,98693.09
2018-09-15T22:29:36.020Z,98691.41
2018-09-15T22:32:05.232Z,98693.47
2018-09-15T22:34:34.455Z,98696.43
2018-09-15T22:37:03.679Z,98695.58
2018-09-15T22:39:32.971Z,98693.42
2018-09-15T22:42:02.289Z,98690.02
2018-09-15T22:44:31.584Z,98690.98
2018-09-15T22:47:00.890Z,98689.30
2018-09-15T22:49:30.170Z,98683.39
2018-09-15T22:51:59.449Z,98680.61
2018-09-15T22:54:28.779Z,98684.14
2018-09-15T22:56:58.066Z,98684.95
2018-09-15T22:59:27.354Z,98685.13
2018-09-15T23:01:56.635Z,98687.22
2018-09-15T23:04:25.935Z,98682.41
2018-09-15T23:06:55.266Z,98685.36
2018-09-15T23:09:24.572Z,98684.64
2018-09-15T23:11:53.891Z,98683.28
2018-09-15T23:14:23.175Z,98689.70
2018-09-15T23:16:52.496Z,98683.97
2018-09-15T23:19:21.781Z,98681.04
2018-09-15T23:21:51.023Z,98688.57
2018-09-15T23:24:20.300Z,98678.97
2018-09-15T23:26:49.553Z,98681.47
2018-09-15T23:29:18.772Z,98676.30
2018-09-15T23:31:48.035Z,98675.55
2018-09-15T23:34:17.289Z,98675.19
2018-09-15T23:36:46.568Z,98675.08
2018-09-15T23:39:15.863Z,98675.46
2018-09-15T23:41:45.324Z,98673.47
2018-09-15T23:44:14.595Z,98664.41
2018-09-15T23:46:43.850Z,98666.34
2018-09-15T23:49:13.104Z,98666.41
2018-09-15T23:51:42.404Z,98660.80
2018-09-15T23:54:11.675Z,98659.94
2018-09-15T23:56:40.966Z,98659.26
2018-09-15T23:59:10.253Z,98657.78
